createdAt,value
2022-07-28T00:00:17.834Z,1.05
2022-07-28T00:02:48.007Z,1.13
2022-07-28T00:05:16.527Z,1.02
2022-07-28T00:07:45.567Z,1.40
2022-07-28T00:10:13.533Z,1.33
2022-07-28T00:12:42.226Z,0.90
2022-07-28T00:15:11.483Z,0.77
2022-07-28T00:17:39.472Z,1.52
2022-07-28T00:20:12.089Z,1.17
2022-07-28T00:22:44.861Z,1.00
2022-07-28T00:25:13.457Z,1.10
2022-07-28T00:27:41.788Z,1.10
2022-07-28T00:30:13.059Z,1.35
2022-07-28T00:32:41.649Z,0.88
2022-07-28T00:35:12.422Z,1.23
2022-07-28T00:37:43.318Z,1.00
2022-07-28T00:40:13.013Z,1.17
2022-07-28T00:42:41.299Z,1.33
2022-07-28T00:45:09.979Z,1.13
2022-07-28T00:47:38.681Z,1.45
2022-07-28T00:50:07.357Z,0.75
2022-07-28T00:52:37.176Z,1.10
2022-07-28T00:55:06.468Z,1.20
2022-07-28T00:57:35.487Z,1.50
2022-07-28T01:00:05.853Z,1.33
2022-07-28T01:02:34.078Z,0.93
2022-07-28T01:05:02.148Z,0.98
2022-07-28T01:07:39.172Z,1.23
2022-07-28T01:10:14.487Z,1.00
2022-07-28T01:12:51.077Z,1.00
2022-07-28T01:15:34.503Z,1.05
2022-07-28T01:18:07.906Z,0.80
2022-07-28T01:20:39.404Z,1.02
2022-07-28T01:23:25.641Z,1.00
2022-07-28T01:26:08.884Z,1.48
2022-07-28T01:29:01.873Z,0.88
2022-07-28T01:31:37.889Z,0.93
2022-07-28T01:34:09.862Z,1.10
2022-07-28T01:36:44.097Z,0.98
2022-07-28T01:39:15.068Z,1.27
2022-07-28T01:41:45.218Z,1.27
2022-07-28T01:44:18.422Z,1.08
2022-07-28T01:46:50.340Z,1.30
2022-07-28T01:49:20.998Z,1.10
2022-07-28T01:51:51.044Z,1.17
2022-07-28T01:54:22.190Z,1.17
2022-07-28T01:56:52.011Z,1.13
2022-07-28T01:59:21.272Z,1.05
2022-07-28T02:01:53.539Z,1.45
2022-07-28T02:04:24.253Z,1.08
2022-07-28T02:06:55.407Z,1.20
2022-07-28T02:09:25.320Z,1.02
2022-07-28T02:11:55.671Z,1.08
2022-07-28T02:14:26.779Z,0.90
2022-07-28T02:16:59.983Z,1.13
2022-07-28T02:19:30.079Z,1.10
2022-07-28T02:21:58.147Z,1.35
2022-07-28T02:24:28.022Z,1.02
2022-07-28T02:27:00.859Z,1.00
2022-07-28T02:29:50.282Z,1.20
2022-07-28T02:32:28.655Z,1.15
2022-07-28T02:35:02.209Z,1.05
2022-07-28T02:40:05.880Z,0.93
2022-07-28T02:42:36.987Z,0.90
2022-07-28T02:45:08.296Z,0.90
2022-07-28T02:47:45.441Z,1.00
2022-07-28T02:50:17.714Z,1.30
2022-07-28T02:52:47.985Z,1.20
2022-07-28T02:55:17.160Z,1.20
2022-07-28T02:57:47.407Z,1.05
2022-07-28T03:00:16.619Z,1.25
2022-07-28T03:02:47.098Z,1.00
2022-07-28T03:05:16.391Z,1.40
2022-07-28T03:07:50.962Z,1.10
2022-07-28T03:10:32.827Z,0.82
2022-07-28T03:13:05.450Z,0.75
2022-07-28T03:15:34.118Z,1.08
2022-07-28T03:18:05.127Z,1.10
2022-07-28T03:20:34.000Z,1.38
2022-07-28T03:23:02.360Z,1.40
2022-07-28T03:25:36.332Z,1.20
2022-07-28T03:28:09.052Z,0.80
2022-07-28T03:30:43.487Z,0.95
2022-07-28T03:33:12.993Z,0.80
2022-07-28T03:35:48.063Z,1.30
2022-07-28T03:38:20.000Z,1.10
2022-07-28T03:40:50.250Z,1.48
2022-07-28T03:43:22.066Z,0.90
2022-07-28T03:45:50.563Z,1.25
2022-07-28T03:48:23.472Z,1.45
2022-07-28T03:50:51.375Z,0.85
2022-07-28T03:53:22.655Z,1.10
2022-07-28T03:55:51.666Z,1.08
2022-07-28T03:58:20.966Z,1.10
2022-07-28T04:00:50.267Z,1.02
2022-07-28T04:03:37.646Z,1.10
2022-07-28T04:06:10.740Z,1.23
2022-07-28T04:08:38.706Z,1.00
2022-07-28T04:11:06.968Z,1.33
2022-07-28T04:13:36.849Z,1.33
2022-07-28T04:16:05.340Z,1.40
2022-07-28T04:18:34.607Z,1.20
2022-07-28T04:21:02.685Z,1.10
2022-07-28T04:23:31.017Z,1.00
2022-07-28T04:26:00.139Z,0.85
2022-07-28T04:28:28.373Z,0.93
2022-07-28T04:30:56.984Z,1.15
2022-07-28T04:33:25.360Z,1.27
2022-07-28T04:35:54.957Z,1.75
2022-07-28T04:38:22.981Z,1.20
2022-07-28T04:40:51.198Z,1.10
2022-07-28T04:43:19.535Z,1.38
2022-07-28T04:45:54.194Z,1.60
2022-07-28T04:48:23.453Z,1.10
2022-07-28T04:50:52.684Z,1.88
2022-07-28T04:53:22.987Z,1.58
2022-07-28T04:55:54.607Z,1.20
2022-07-28T04:58:24.083Z,1.27
2022-07-28T05:00:52.539Z,1.20
2022-07-28T05:03:20.928Z,1.33
2022-07-28T05:05:53.819Z,1.20
2022-07-28T05:08:25.391Z,0.90
2022-07-28T05:10:54.817Z,1.52
2022-07-28T05:13:23.242Z,1.40
2022-07-28T05:15:51.537Z,1.23
2022-07-28T05:18:19.524Z,1.10
2022-07-28T05:20:49.537Z,1.40
2022-07-28T05:23:17.832Z,1.45
2022-07-28T05:25:48.596Z,1.13
2022-07-28T05:28:16.850Z,1.10
2022-07-28T05:30:45.423Z,1.35
2022-07-28T05:33:16.173Z,1.35
2022-07-28T05:35:44.768Z,1.10
2022-07-28T05:38:13.534Z,0.93
2022-07-28T05:40:41.403Z,1.20
2022-07-28T05:43:12.067Z,1.20
2022-07-28T05:45:40.271Z,1.00
2022-07-28T05:48:08.953Z,1.38
2022-07-28T05:50:37.708Z,1.20
2022-07-28T05:53:06.250Z,1.20
2022-07-28T05:55:34.602Z,1.52
2022-07-28T05:58:24.691Z,1.70
2022-07-28T06:00:54.420Z,1.05
2022-07-28T06:03:22.410Z,1.35
2022-07-28T06:06:00.621Z,1.00
2022-07-28T06:08:39.862Z,1.20
2022-07-28T06:11:11.496Z,1.60
2022-07-28T06:13:41.403Z,1.52
2022-07-28T06:16:13.119Z,1.25
2022-07-28T06:18:44.141Z,1.30
2022-07-28T06:21:12.175Z,1.17
2022-07-28T06:23:40.782Z,1.00
2022-07-28T06:26:09.386Z,1.30
2022-07-28T06:28:38.040Z,0.95
2022-07-28T06:31:08.419Z,1.20
2022-07-28T06:33:37.151Z,1.30
2022-07-28T06:36:07.841Z,1.27
2022-07-28T06:38:36.141Z,1.00
2022-07-28T06:41:04.455Z,1.20
2022-07-28T06:43:36.817Z,1.60
2022-07-28T06:46:08.731Z,1.10
2022-07-28T06:48:38.755Z,1.20
2022-07-28T06:51:07.735Z,1.70
2022-07-28T06:53:35.741Z,1.25
2022-07-28T06:56:06.188Z,1.05
2022-07-28T06:58:34.501Z,1.40
2022-07-28T07:01:07.505Z,1.15
2022-07-28T07:06:05.332Z,1.27
2022-07-28T07:08:36.011Z,1.13
2022-07-28T07:11:03.985Z,1.10
2022-07-28T07:13:33.300Z,1.23
2022-07-28T07:16:01.886Z,1.38
2022-07-28T07:18:30.107Z,1.48
2022-07-28T07:20:59.993Z,1.25
2022-07-28T07:23:29.352Z,1.30
2022-07-28T07:25:57.379Z,1.42
2022-07-28T07:28:25.633Z,1.08
2022-07-28T07:30:54.073Z,1.13
2022-07-28T07:33:22.405Z,1.35
2022-07-28T07:35:50.748Z,1.10
2022-07-28T07:38:20.945Z,1.00
2022-07-28T07:40:51.375Z,1.75
2022-07-28T07:43:19.719Z,1.10
2022-07-28T07:45:47.768Z,1.33
2022-07-28T07:48:15.958Z,1.30
2022-07-28T07:50:45.056Z,1.30
2022-07-28T07:53:13.191Z,1.17
2022-07-28T07:55:42.737Z,1.65
2022-07-28T07:58:12.149Z,1.63
2022-07-28T08:00:41.087Z,1.23
2022-07-28T08:03:11.234Z,1.60
2022-07-28T08:05:39.683Z,1.33
2022-07-28T08:08:08.180Z,1.40
2022-07-28T08:10:38.364Z,1.27
2022-07-28T08:13:08.370Z,1.30
2022-07-28T08:15:37.373Z,1.52
2022-07-28T08:18:05.800Z,1.60
2022-07-28T08:20:34.096Z,1.35
2022-07-28T08:23:02.633Z,1.45
2022-07-28T08:25:32.673Z,1.50
2022-07-28T08:28:00.612Z,1.70
2022-07-28T08:30:32.997Z,1.40
2022-07-28T08:33:02.890Z,1.50
2022-07-28T08:35:35.607Z,1.67
2022-07-28T08:38:05.114Z,1.80
2022-07-28T08:40:33.650Z,1.90
2022-07-28T08:43:08.424Z,2.20
2022-07-28T08:45:40.198Z,1.55
2022-07-28T08:48:12.256Z,2.10
2022-07-28T08:50:40.440Z,4.68
2022-07-28T08:53:09.826Z,1.90
2022-07-28T08:55:38.877Z,1.33
2022-07-28T08:58:07.916Z,1.23
2022-07-28T09:00:37.641Z,1.40
2022-07-28T09:03:07.624Z,1.50
2022-07-28T09:05:36.901Z,1.67
2022-07-28T09:08:05.345Z,1.60
2022-07-28T09:10:33.430Z,1.75
2022-07-28T09:13:01.799Z,1.60
2022-07-28T09:15:34.823Z,1.30
2022-07-28T09:18:04.753Z,1.77
2022-07-28T09:20:32.961Z,1.83
2022-07-28T09:23:02.534Z,1.70
2022-07-28T09:25:32.030Z,1.73
2022-07-28T09:28:07.679Z,1.45
2022-07-28T09:30:38.639Z,1.67
2022-07-28T09:33:41.799Z,1.80
2022-07-28T09:36:17.045Z,1.50
2022-07-28T09:38:46.717Z,1.80
2022-07-28T09:41:18.854Z,1.50
2022-07-28T09:43:52.503Z,1.70
2022-07-28T09:46:26.303Z,1.48
2022-07-28T09:49:01.533Z,1.90
2022-07-28T09:51:33.443Z,1.58
2022-07-28T09:54:09.924Z,1.40
2022-07-28T09:56:39.000Z,1.92
2022-07-28T09:59:09.131Z,1.60
2022-07-28T10:01:52.771Z,1.67
2022-07-28T10:04:35.646Z,1.73
2022-07-28T10:07:06.699Z,1.48
2022-07-28T10:09:35.241Z,1.40
2022-07-28T10:12:17.439Z,1.83
2022-07-28T10:14:47.953Z,1.58
2022-07-28T10:17:27.784Z,1.60
2022-07-28T10:19:58.585Z,1.35
2022-07-28T10:22:33.720Z,1.55
2022-07-28T10:25:03.633Z,1.58
2022-07-28T10:27:33.442Z,1.60
2022-07-28T10:30:03.940Z,1.75
2022-07-28T10:32:39.520Z,1.60
2022-07-28T10:35:12.203Z,1.70
2022-07-28T10:37:50.114Z,1.60
2022-07-28T10:40:23.597Z,2.08
2022-07-28T10:42:53.187Z,1.70
2022-07-28T10:45:22.400Z,1.40
2022-07-28T10:47:51.438Z,1.60
2022-07-28T10:50:21.930Z,1.77
2022-07-28T10:52:54.793Z,1.60
2022-07-28T10:55:40.767Z,1.80
2022-07-28T10:58:25.132Z,1.60
2022-07-28T11:00:57.948Z,2.20
2022-07-28T11:03:43.084Z,1.77
2022-07-28T11:06:30.193Z,1.80
2022-07-28T11:08:59.933Z,1.90
2022-07-28T11:11:47.595Z,2.08
2022-07-28T11:14:37.520Z,1.70
2022-07-28T11:17:24.447Z,1.50
2022-07-28T11:20:26.661Z,1.90
2022-07-28T11:22:55.300Z,1.23
2022-07-28T11:25:23.429Z,1.50
2022-07-28T11:28:09.748Z,1.52
2022-07-28T11:30:58.354Z,1.50
2022-07-28T11:33:55.611Z,1.60
2022-07-28T11:36:24.452Z,1.90
2022-07-28T11:39:26.057Z,1.77
2022-07-28T11:41:55.804Z,1.67
2022-07-28T11:44:25.991Z,1.98
2022-07-28T11:46:55.213Z,1.55
2022-07-28T11:49:30.120Z,1.70
2022-07-28T11:52:29.215Z,1.60
2022-07-28T11:55:00.587Z,1.50
2022-07-28T11:57:30.145Z,1.30
2022-07-28T12:00:04.508Z,1.63
2022-07-28T12:02:36.860Z,1.40
2022-07-28T12:05:11.895Z,1.50
2022-07-28T12:07:46.015Z,1.58
2022-07-28T12:10:53.915Z,1.85
2022-07-28T12:13:33.272Z,1.65
2022-07-28T12:16:01.477Z,1.60
2022-07-28T12:18:29.790Z,1.77
2022-07-28T12:21:04.601Z,1.63
2022-07-28T12:23:39.146Z,1.83
2022-07-28T12:26:31.268Z,1.90
2022-07-28T12:29:01.808Z,1.60
2022-07-28T12:31:34.153Z,1.67
2022-07-28T12:34:05.851Z,1.75
2022-07-28T12:36:35.182Z,1.80
2022-07-28T12:39:05.706Z,1.65
2022-07-28T12:41:39.345Z,1.73
2022-07-28T12:44:08.897Z,2.28
2022-07-28T12:46:36.913Z,1.60
2022-07-28T12:49:05.073Z,1.77
2022-07-28T12:51:34.890Z,1.67
2022-07-28T12:54:03.120Z,1.75
2022-07-28T12:56:31.598Z,1.63
2022-07-28T12:59:10.464Z,2.08
2022-07-28T13:01:52.455Z,1.70
2022-07-28T13:04:41.671Z,1.40
2022-07-28T13:07:11.842Z,1.73
2022-07-28T13:09:50.173Z,1.70
2022-07-28T13:12:23.696Z,1.60
2022-07-28T13:14:55.540Z,1.92
2022-07-28T13:17:25.683Z,1.92
2022-07-28T13:20:06.418Z,1.60
2022-07-28T13:22:35.143Z,1.50
2022-07-28T13:25:03.337Z,1.90
2022-07-28T13:27:33.853Z,1.50
2022-07-28T13:30:03.025Z,1.75
2022-07-28T13:32:31.511Z,2.05
2022-07-28T13:34:59.389Z,1.70
2022-07-28T13:37:27.478Z,1.70
2022-07-28T13:39:55.717Z,1.70
2022-07-28T13:42:24.216Z,1.70
2022-07-28T13:44:52.453Z,1.80
2022-07-28T13:47:22.104Z,1.85
2022-07-28T13:49:50.875Z,1.50
2022-07-28T13:52:33.141Z,1.70
2022-07-28T13:55:06.249Z,2.05
2022-07-28T13:57:36.366Z,1.70
2022-07-28T14:00:08.155Z,1.60
2022-07-28T14:02:38.001Z,1.70
2022-07-28T14:05:06.985Z,1.80
2022-07-28T14:07:35.457Z,1.70
2022-07-28T14:10:03.533Z,1.70
2022-07-28T14:12:37.652Z,1.90
2022-07-28T14:15:09.744Z,2.03
2022-07-28T14:17:44.793Z,1.80
2022-07-28T14:20:14.457Z,1.83
2022-07-28T14:22:43.357Z,1.70
2022-07-28T14:25:13.489Z,2.10
2022-07-28T14:27:50.131Z,1.90
2022-07-28T14:30:19.915Z,2.10
2022-07-28T14:32:50.766Z,2.03
2022-07-28T14:35:19.578Z,1.77
2022-07-28T14:38:41.983Z,1.98
2022-07-28T14:40:39.409Z,1.98
2022-07-28T14:43:09.019Z,1.83
2022-07-28T14:46:01.632Z,1.80
2022-07-28T14:48:29.538Z,1.83
2022-07-28T14:50:58.738Z,1.73
2022-07-28T14:53:27.840Z,2.20
2022-07-28T14:55:57.080Z,2.05
2022-07-28T14:58:25.834Z,1.90
2022-07-28T15:00:54.497Z,1.92
2022-07-28T15:03:22.967Z,2.30
2022-07-28T15:05:52.913Z,1.95
2022-07-28T15:08:21.309Z,2.08
2022-07-28T15:10:57.745Z,2.13
2022-07-28T15:13:34.203Z,1.98
2022-07-28T15:16:02.621Z,1.70
2022-07-28T15:18:31.008Z,1.73
2022-07-28T15:21:00.622Z,1.85
2022-07-28T15:23:28.884Z,1.73
2022-07-28T15:25:57.634Z,2.20
2022-07-28T15:28:26.067Z,1.80
2022-07-28T15:30:54.621Z,1.90
2022-07-28T15:33:24.163Z,2.03
2022-07-28T15:35:57.815Z,2.25
2022-07-28T15:38:31.821Z,2.20
2022-07-28T15:43:34.666Z,1.90
2022-07-28T15:51:44.723Z,1.85
2022-07-28T15:54:17.024Z,2.10
2022-07-28T15:56:46.462Z,1.85
2022-07-28T15:59:15.209Z,2.10
2022-07-28T16:01:45.544Z,2.00
2022-07-28T16:04:14.510Z,2.10
2022-07-28T16:06:59.890Z,1.98
2022-07-28T16:09:46.616Z,1.98
2022-07-28T16:12:14.885Z,2.33
2022-07-28T16:14:44.133Z,2.03
2022-07-28T16:17:12.918Z,1.90
2022-07-28T16:19:50.238Z,1.98
2022-07-28T16:22:19.268Z,1.90
2022-07-28T16:24:49.419Z,2.00
2022-07-28T16:27:20.264Z,2.20
2022-07-28T16:29:49.561Z,2.10
2022-07-28T16:32:17.605Z,2.20
2022-07-28T16:34:46.001Z,2.15
2022-07-28T16:37:19.240Z,2.13
2022-07-28T16:39:49.690Z,2.30
2022-07-28T16:42:18.455Z,1.90
2022-07-28T16:44:47.538Z,2.20
2022-07-28T16:47:18.004Z,1.75
2022-07-28T16:49:46.454Z,1.95
2022-07-28T16:52:15.056Z,1.90
2022-07-28T16:54:43.652Z,2.17
2022-07-28T16:57:13.517Z,2.13
2022-07-28T16:59:47.796Z,2.15
2022-07-28T17:02:17.857Z,2.08
2022-07-28T17:04:46.109Z,2.00
2022-07-28T17:07:14.045Z,2.83
2022-07-28T17:09:42.097Z,1.90
2022-07-28T17:12:12.550Z,1.92
2022-07-28T17:14:42.290Z,2.03
2022-07-28T17:17:10.452Z,1.70
2022-07-28T17:19:43.426Z,2.05
2022-07-28T17:22:15.101Z,1.90
2022-07-28T17:24:42.976Z,2.53
2022-07-28T17:30:03.173Z,2.25
2022-07-28T17:32:31.338Z,2.23
2022-07-28T17:34:59.499Z,1.92
2022-07-28T17:37:29.130Z,2.05
2022-07-28T17:39:57.864Z,2.17
2022-07-28T17:42:25.714Z,1.92
2022-07-28T17:44:56.149Z,2.60
2022-07-28T17:47:35.880Z,2.30
2022-07-28T17:50:07.435Z,2.15
2022-07-28T17:52:37.933Z,2.00
2022-07-28T17:55:26.652Z,2.58
2022-07-28T17:57:57.912Z,2.25
2022-07-28T18:00:26.174Z,2.30
2022-07-28T18:02:56.157Z,2.10
2022-07-28T18:05:24.544Z,1.98
2022-07-28T18:07:57.419Z,2.25
2022-07-28T18:10:27.877Z,2.15
2022-07-28T18:12:56.090Z,2.35
2022-07-28T18:15:24.040Z,2.13
2022-07-28T18:17:54.530Z,2.15
2022-07-28T18:20:30.869Z,2.30
2022-07-28T18:22:59.835Z,2.17
2022-07-28T18:25:29.026Z,1.98
2022-07-28T18:27:57.524Z,2.30
2022-07-28T18:30:27.064Z,1.90
2022-07-28T18:32:55.030Z,2.00
2022-07-28T18:35:24.201Z,2.10
2022-07-28T18:37:53.913Z,1.88
2022-07-28T18:40:25.542Z,1.80
2022-07-28T18:42:56.064Z,1.90
2022-07-28T18:45:26.715Z,2.13
2022-07-28T18:47:58.605Z,2.20
2022-07-28T18:50:31.434Z,2.15
2022-07-28T18:53:00.952Z,1.85
2022-07-28T18:55:29.201Z,1.80
2022-07-28T18:57:57.359Z,1.85
2022-07-28T19:00:25.720Z,2.30
2022-07-28T19:02:54.031Z,2.28
2022-07-28T19:07:50.100Z,2.25
2022-07-28T19:10:21.523Z,2.08
2022-07-28T19:12:50.874Z,2.25
2022-07-28T19:15:19.554Z,2.53
2022-07-28T19:18:10.431Z,2.40
2022-07-28T19:20:36.737Z,2.05
2022-07-28T19:23:05.634Z,2.20
2022-07-28T19:25:36.475Z,2.05
2022-07-28T19:28:04.863Z,2.15
2022-07-28T19:30:33.032Z,2.47
2022-07-28T19:33:01.078Z,2.20
2022-07-28T19:35:29.302Z,2.08
2022-07-28T19:38:00.108Z,2.40
2022-07-28T19:40:32.146Z,2.33
2022-07-28T19:43:02.181Z,2.45
2022-07-28T19:45:30.369Z,2.30
2022-07-28T19:47:58.250Z,2.15
2022-07-28T19:50:26.441Z,2.13
2022-07-28T19:52:55.560Z,2.40
2022-07-28T19:55:29.075Z,2.50
2022-07-28T19:57:59.138Z,2.08
2022-07-28T20:00:28.813Z,2.15
2022-07-28T20:02:56.912Z,2.35
2022-07-28T20:05:30.094Z,2.30
2022-07-28T20:08:00.555Z,2.20
2022-07-28T20:10:28.994Z,2.60
2022-07-28T20:12:57.475Z,2.50
2022-07-28T20:15:26.269Z,2.83
2022-07-28T20:17:55.949Z,2.28
2022-07-28T20:20:24.649Z,2.28
2022-07-28T20:22:52.460Z,2.20
2022-07-28T20:25:20.667Z,2.20
2022-07-28T20:27:50.514Z,2.10
2022-07-28T20:30:19.062Z,2.55
2022-07-28T20:32:47.274Z,2.20
2022-07-28T20:35:19.785Z,2.25
2022-07-28T20:37:48.174Z,2.10
2022-07-28T20:40:16.552Z,2.33
2022-07-28T20:42:47.591Z,2.05
2022-07-28T20:45:19.346Z,1.90
2022-07-28T20:47:47.454Z,2.30
2022-07-28T20:50:17.762Z,2.30
2022-07-28T20:52:45.992Z,1.90
2022-07-28T20:55:14.415Z,2.55
2022-07-28T20:57:42.804Z,2.10
2022-07-28T21:00:24.650Z,2.05
2022-07-28T21:02:53.506Z,1.95
2022-07-28T21:05:34.803Z,1.92
2022-07-28T21:08:09.157Z,2.38
2022-07-28T21:10:39.134Z,2.05
2022-07-28T21:13:07.508Z,1.92
2022-07-28T21:15:35.762Z,1.70
2022-07-28T21:18:03.638Z,1.95
2022-07-28T21:20:33.205Z,1.88
2022-07-28T21:23:01.305Z,1.42
2022-07-28T21:25:31.590Z,1.80
2022-07-28T21:28:17.599Z,2.10
2022-07-28T21:30:46.042Z,2.08
2022-07-28T21:33:22.555Z,1.88
2022-07-28T21:35:52.995Z,1.75
2022-07-28T21:38:21.853Z,2.03
2022-07-28T21:40:50.470Z,1.50
2022-07-28T21:43:18.710Z,2.30
2022-07-28T21:45:46.847Z,1.90
2022-07-28T21:48:16.910Z,1.92
2022-07-28T21:50:45.222Z,2.05
2022-07-28T21:53:17.256Z,2.00
2022-07-28T21:55:46.224Z,1.75
2022-07-28T21:58:14.792Z,2.10
2022-07-28T22:00:44.133Z,1.85
2022-07-28T22:03:12.710Z,2.22
2022-07-28T22:05:41.794Z,1.60
2022-07-28T22:08:09.644Z,1.88
2022-07-28T22:10:39.283Z,1.95
2022-07-28T22:13:07.511Z,1.55
2022-07-28T22:15:35.943Z,1.88
2022-07-28T22:18:03.798Z,1.77
2022-07-28T22:20:31.824Z,1.55
2022-07-28T22:22:59.732Z,1.95
2022-07-28T22:25:27.581Z,1.80
2022-07-28T22:27:57.159Z,1.45
2022-07-28T22:30:25.396Z,1.90
2022-07-28T22:32:56.532Z,1.85
2022-07-28T22:35:25.476Z,2.30
2022-07-28T22:37:53.501Z,2.05
2022-07-28T22:40:21.441Z,1.80
2022-07-28T22:42:49.815Z,2.10
2022-07-28T22:45:50.680Z,1.63
2022-07-28T22:48:08.008Z,2.50
2022-07-28T22:53:09.923Z,2.20
2022-07-28T22:55:38.234Z,2.20
2022-07-28T22:58:08.954Z,2.00
2022-07-28T23:00:38.467Z,1.95
2022-07-28T23:03:07.838Z,2.30
2022-07-28T23:05:40.990Z,2.13
2022-07-28T23:08:09.134Z,1.60
2022-07-28T23:10:38.868Z,1.60
2022-07-28T23:13:07.420Z,2.08
2022-07-28T23:15:39.385Z,2.10
2022-07-28T23:18:11.168Z,1.73
2022-07-28T23:20:40.556Z,1.98
2022-07-28T23:23:08.922Z,2.15
2022-07-28T23:25:39.669Z,1.73
2022-07-28T23:28:08.664Z,2.17
2022-07-28T23:30:37.089Z,2.10
2022-07-28T23:33:05.477Z,2.33
2022-07-28T23:35:36.029Z,1.90
2022-07-28T23:38:04.358Z,1.90
2022-07-28T23:40:32.824Z,2.13
2022-07-28T23:43:01.950Z,2.08
2022-07-28T23:45:30.040Z,2.50
2022-07-28T23:47:58.965Z,3.10
2022-07-28T23:50:27.581Z,3.20
2022-07-28T23:52:57.473Z,3.30
2022-07-28T23:55:28.625Z,3.03
2022-07-28T23:57:56.773Z,1.80
